Ahtanum, Washington
Current Conditions -  °F | °C
As of 11:53 AM on Thursday 30 Oct 2014 (Local Time) from KYKM Reporting Station
Broken Clouds Broken Clouds  
Wind Chill: 55°   Ceiling: 6000
Heat Index: 55°   Visibility: 7mi
Dew Point: 51°   Wind: 3mph
Humidity: 86%   Direction: 280°W
Pressure: 30.01"   Gusts: NA
Location:  46.5979°N, 120.534°W
Report Text: KYKM 301853Z 28003KT 7SM SCT010 SCT044 BKN060 13/11 A3001 RMK AO2 RAE12 SLP165 P0000 T01280106
Loading
Personal Weather Stations






























Interactive Weather Map New forecast layout! Learn more

10-Day Weather Forecast

Advertisements
Track Severe Weather on mobile